Time;durP1;ratioP1;P1;durP2;ratioP2;P2;SDS_P1;SDS_P2;PMS_P1;PMS_P2;Temp;Humidity;BMP_temperature;BMP_pressure;BME280_temperature;BME280_humidity;BME280_pressure;Samples;Min_cycle;Max_cycle;Signal;HPM_P1;HPM_P2
2021/06/29 00:01:18;;;;;;;2.47;2.28;;;26.20;99.90;;;;;;4904783;29;20043;-85
2021/06/29 00:03:44;;;;;;;2.15;1.95;;;26.20;99.90;;;;;;4908653;29;20037;-85
2021/06/29 00:06:10;;;;;;;2.80;2.35;;;26.20;99.90;;;;;;4891701;29;20047;-86
2021/06/29 00:08:35;;;;;;;2.30;2.10;;;26.20;99.90;;;;;;4901973;29;20077;-86
2021/06/29 00:11:01;;;;;;;2.70;2.30;;;26.10;99.90;;;;;;4868403;29;20123;-85
2021/06/29 00:13:27;;;;;;;2.50;2.30;;;26.10;99.90;;;;;;4899316;29;20037;-86
2021/06/29 00:15:53;;;;;;;2.80;2.60;;;26.10;99.90;;;;;;4883640;29;20037;-85
2021/06/29 00:18:18;;;;;;;2.72;2.53;;;26.10;99.90;;;;;;4899391;29;20033;-85
2021/06/29 00:20:45;;;;;;;2.92;2.65;;;26.10;99.90;;;;;;4882525;29;20608;-85
2021/06/29 00:23:10;;;;;;;2.80;2.60;;;26.10;99.90;;;;;;4898906;29;20554;-85
2021/06/29 00:25:36;;;;;;;3.15;2.85;;;26.20;99.90;;;;;;4883237;29;20056;-86
2021/06/29 00:28:02;;;;;;;3.80;3.30;;;26.10;99.90;;;;;;4883463;29;20039;-86
2021/06/29 00:30:28;;;;;;;3.20;2.90;;;26.10;99.90;;;;;;4883563;29;20044;-86
2021/06/29 00:32:54;;;;;;;3.60;3.30;;;26.20;99.90;;;;;;4898790;29;20036;-86
2021/06/29 00:35:19;;;;;;;3.72;3.42;;;26.10;99.90;;;;;;4898926;29;20445;-86
2021/06/29 00:37:45;;;;;;;3.38;3.08;;;26.10;99.90;;;;;;4898962;29;20024;-86
2021/06/29 00:40:12;;;;;;;3.55;3.25;;;26.10;99.90;;;;;;4868027;29;20037;-85
2021/06/29 00:42:38;;;;;;;3.60;3.30;;;26.10;99.90;;;;;;4900024;29;20028;-86
2021/06/29 00:45:07;;;;;;;4.25;3.80;;;26.10;99.90;;;;;;4882997;29;20037;-85
2021/06/29 00:47:33;;;;;;;4.00;3.60;;;26.10;99.90;;;;;;4898741;29;20471;-85
2021/06/29 00:49:59;;;;;;;4.90;4.40;;;26.10;99.90;;;;;;4899579;29;20068;-87
2021/06/29 00:52:26;;;;;;;4.38;3.97;;;26.10;99.90;;;;;;4899983;29;20099;-85
2021/06/29 00:54:52;;;;;;;4.72;4.25;;;26.10;99.90;;;;;;4883217;29;20037;-85
2021/06/29 00:57:17;;;;;;;4.30;3.90;;;26.10;99.90;;;;;;4898534;29;20455;-85
2021/06/29 00:59:43;;;;;;;4.47;4.07;;;26.10;99.90;;;;;;4882404;29;20047;-86
2021/06/29 01:02:10;;;;;;;4.68;4.22;;;26.10;99.90;;;;;;4883075;29;20028;-85
2021/06/29 01:04:42;;;;;;;4.65;4.22;;;26.10;99.90;;;;;;4898754;29;20041;-85
2021/06/29 01:07:12;;;;;;;4.82;4.32;;;26.10;99.90;;;;;;4882821;29;20025;-85
2021/06/29 01:09:38;;;;;;;5.47;4.88;;;26.10;99.90;;;;;;4882590;29;20119;-87
2021/06/29 01:12:09;;;;;;;5.78;5.18;;;26.10;99.90;;;;;;4899691;29;20036;-85
2021/06/29 01:14:34;;;;;;;5.80;5.03;;;26.10;99.90;;;;;;4883093;29;20032;-85
2021/06/29 01:17:03;;;;;;;5.13;4.63;;;26.10;99.90;;;;;;4882216;29;20039;-85
2021/06/29 01:19:37;;;;;;;6.50;5.43;;;26.10;99.90;;;;;;4868182;29;20040;-85
2021/06/29 01:22:05;;;;;;;6.10;5.50;;;26.10;99.90;;;;;;4897815;29;20044;-85
2021/06/29 01:24:32;;;;;;;7.05;6.35;;;26.10;99.90;;;;;;4882445;29;20052;-85
2021/06/29 01:30:59;;;;;;;6.53;5.90;;;26.10;99.90;;;;;;4899539;29;20033;-85
2021/06/29 01:32:20;;;;;;;6.35;5.75;;;26.10;99.90;;;;;;4883309;29;20088;-85
2021/06/29 01:34:46;;;;;;;7.72;6.63;;;26.00;99.90;;;;;;4866642;29;20029;-85
2021/06/29 01:37:13;;;;;;;6.93;6.22;;;26.00;99.90;;;;;;4897970;29;20036;-86
2021/06/29 01:39:50;;;;;;;7.55;6.75;;;26.00;99.90;;;;;;4899280;29;20029;-85
2021/06/29 01:42:15;;;;;;;8.25;6.95;;;26.00;99.90;;;;;;4898119;29;20043;-86
2021/06/29 01:44:42;;;;;;;8.45;7.57;;;26.00;99.90;;;;;;4882225;29;20466;-87
2021/06/29 01:47:10;;;;;;;8.50;7.20;;;26.00;99.90;;;;;;4897782;29;20063;-85
2021/06/29 01:49:36;;;;;;;7.97;7.18;;;26.00;99.90;;;;;;4882028;29;20148;-85
2021/06/29 01:52:02;;;;;;;8.00;7.20;;;26.00;99.90;;;;;;4897054;29;20127;-86
2021/06/29 01:54:27;;;;;;;8.40;7.47;;;26.00;99.90;;;;;;4866350;29;20043;-86
2021/06/29 01:56:53;;;;;;;8.85;7.90;;;26.00;99.90;;;;;;4866109;29;20041;-85
2021/06/29 01:59:21;;;;;;;9.25;7.43;;;26.00;99.90;;;;;;4881759;29;20144;-85
2021/06/29 02:01:47;;;;;;;10.20;7.78;;;26.00;99.90;;;;;;4896872;29;20431;-86
2021/06/29 02:04:13;;;;;;;8.57;7.72;;;26.00;99.90;;;;;;4881597;29;20048;-85
2021/06/29 02:06:39;;;;;;;9.27;8.32;;;26.00;99.90;;;;;;4896987;29;20032;-86
2021/06/29 02:09:09;;;;;;;9.63;7.85;;;26.00;99.90;;;;;;4897127;29;20083;-85
2021/06/29 02:11:37;;;;;;;8.73;7.82;;;26.00;99.90;;;;;;4881949;29;20044;-85
2021/06/29 02:14:04;;;;;;;10.38;8.88;;;26.00;99.90;;;;;;4896952;29;20020;-85
2021/06/29 02:16:29;;;;;;;8.85;7.95;;;26.00;99.90;;;;;;4866319;29;20036;-85
2021/06/29 02:18:55;;;;;;;9.35;8.35;;;26.00;99.90;;;;;;4881231;29;20600;-86
2021/06/29 02:21:21;;;;;;;11.05;9.10;;;26.00;99.90;;;;;;4896977;29;20072;-86
2021/06/29 02:23:46;;;;;;;10.18;8.95;;;26.00;99.90;;;;;;4896864;29;20447;-86
2021/06/29 02:26:12;;;;;;;11.38;9.88;;;26.00;99.90;;;;;;4897037;29;20039;-85
2021/06/29 02:28:38;;;;;;;11.25;9.63;;;26.00;99.90;;;;;;4881253;29;20101;-85
2021/06/29 02:31:03;;;;;;;11.98;9.98;;;26.00;99.90;;;;;;4866036;29;20040;-85
2021/06/29 02:33:29;;;;;;;11.38;10.13;;;26.00;99.90;;;;;;4881493;29;20131;-85
2021/06/29 02:35:55;;;;;;;13.05;10.77;;;26.00;99.90;;;;;;4896700;29;20075;-85
2021/06/29 02:38:22;;;;;;;12.32;11.02;;;26.00;99.90;;;;;;4881304;29;20100;-85
2021/06/29 02:40:48;;;;;;;12.55;11.18;;;26.00;99.90;;;;;;4898167;29;20037;-88
2021/06/29 02:43:15;;;;;;;12.30;10.65;;;26.00;99.90;;;;;;4882945;29;20036;-87
2021/06/29 02:45:42;;;;;;;12.75;11.05;;;26.00;99.90;;;;;;4885556;29;20092;-86
2021/06/29 02:48:09;;;;;;;12.32;11.00;;;26.00;99.90;;;;;;4889973;29;20033;-86
2021/06/29 02:50:35;;;;;;;12.30;10.63;;;26.00;99.90;;;;;;4916829;29;20037;-86
2021/06/29 02:53:00;;;;;;;12.93;11.52;;;26.00;99.90;;;;;;4883745;29;20036;-86
2021/06/29 02:55:26;;;;;;;12.93;11.15;;;26.00;99.90;;;;;;4901041;29;20084;-85
2021/06/29 02:57:52;;;;;;;13.23;11.50;;;26.00;99.90;;;;;;4885055;29;20028;-86
2021/06/29 03:00:20;;;;;;;14.55;12.32;;;26.00;99.90;;;;;;4900773;29;20044;-86
2021/06/29 03:02:46;;;;;;;12.18;10.70;;;26.00;99.90;;;;;;4902095;29;20060;-86
2021/06/29 03:05:12;;;;;;;12.98;11.38;;;26.00;99.90;;;;;;4900444;29;20060;-86
2021/06/29 03:07:38;;;;;;;12.63;11.32;;;26.00;99.90;;;;;;4900748;29;20039;-86
2021/06/29 03:10:05;;;;;;;13.43;11.68;;;26.00;99.90;;;;;;4886575;29;20032;-86
2021/06/29 03:12:31;;;;;;;15.32;12.85;;;26.00;99.90;;;;;;4887384;29;20036;-85
2021/06/29 03:14:58;;;;;;;13.02;11.63;;;26.00;99.90;;;;;;4907748;29;20056;-85
2021/06/29 03:17:24;;;;;;;13.75;12.30;;;26.00;99.90;;;;;;4908127;29;20025;-86
2021/06/29 03:19:50;;;;;;;14.70;11.88;;;26.00;99.90;;;;;;4888191;29;20055;-85
2021/06/29 03:22:16;;;;;;;13.63;12.23;;;26.00;99.90;;;;;;4901893;29;20055;-85
2021/06/29 03:24:42;;;;;;;15.32;13.65;;;26.00;99.90;;;;;;4900558;29;20064;-85
2021/06/29 03:27:08;;;;;;;15.15;13.23;;;26.00;99.90;;;;;;4869180;29;20043;-85
2021/06/29 03:29:35;;;;;;;14.57;12.82;;;26.00;99.90;;;;;;4884582;29;20036;-86
2021/06/29 03:32:01;;;;;;;15.70;13.88;;;26.00;99.90;;;;;;4869021;29;20037;-85
2021/06/29 03:34:26;;;;;;;15.98;14.27;;;26.00;99.90;;;;;;4884565;29;20068;-86
2021/06/29 03:36:52;;;;;;;16.88;14.48;;;26.00;99.90;;;;;;4884974;29;20037;-86
2021/06/29 03:39:18;;;;;;;15.02;13.48;;;26.00;99.90;;;;;;4899789;29;20036;-86
2021/06/29 03:41:45;;;;;;;15.82;14.13;;;26.00;99.90;;;;;;4901098;29;20127;-86
2021/06/29 03:44:11;;;;;;;15.30;13.70;;;26.00;99.90;;;;;;4884134;29;20028;-86
2021/06/29 03:46:36;;;;;;;16.23;14.48;;;25.90;99.90;;;;;;4900043;29;20097;-86
2021/06/29 03:49:02;;;;;;;14.55;13.05;;;26.00;99.90;;;;;;4884276;29;20118;-86
2021/06/29 03:51:28;;;;;;;14.40;12.90;;;25.90;99.90;;;;;;4900264;29;20063;-86
2021/06/29 03:53:54;;;;;;;16.85;15.05;;;25.90;99.90;;;;;;4884109;29;20087;-86
2021/06/29 03:56:29;;;;;;;15.48;13.60;;;26.00;99.90;;;;;;4898734;29;20039;-86
2021/06/29 03:59:03;;;;;;;16.02;13.95;;;26.00;99.90;;;;;;4871292;29;20077;-86
2021/06/29 04:01:30;;;;;;;15.38;13.68;;;26.00;99.90;;;;;;4900425;29;20040;-86
2021/06/29 04:03:57;;;;;;;16.27;13.93;;;25.90;99.90;;;;;;4868692;29;20058;-88
2021/06/29 04:06:30;;;;;;;15.18;13.57;;;25.90;99.90;;;;;;4899636;29;20024;-85
2021/06/29 04:08:57;;;;;;;15.48;13.70;;;25.90;99.90;;;;;;4899294;29;20033;-85
2021/06/29 04:11:24;;;;;;;15.73;14.13;;;25.90;99.90;;;;;;4884211;29;20135;-85
2021/06/29 04:13:50;;;;;;;15.55;13.93;;;25.90;99.90;;;;;;4899466;29;20487;-85
2021/06/29 04:16:16;;;;;;;15.93;14.23;;;25.90;99.90;;;;;;4899163;29;20096;-86
2021/06/29 04:18:42;;;;;;;15.68;13.98;;;25.90;99.90;;;;;;4900584;29;20471;-85
2021/06/29 04:21:08;;;;;;;16.85;14.32;;;25.90;99.90;;;;;;4899047;29;20530;-86
2021/06/29 04:23:34;;;;;;;16.23;14.35;;;25.90;99.90;;;;;;4899427;29;20120;-85
2021/06/29 04:26:00;;;;;;;16.08;13.82;;;25.90;99.90;;;;;;4883305;29;20368;-86
2021/06/29 04:28:25;;;;;;;15.25;13.65;;;25.90;99.90;;;;;;4883683;29;20075;-85
2021/06/29 04:30:51;;;;;;;16.67;14.35;;;25.90;99.90;;;;;;4883887;29;20064;-85
2021/06/29 04:33:17;;;;;;;14.98;13.38;;;25.90;99.90;;;;;;4898714;29;20399;-86
2021/06/29 04:35:43;;;;;;;15.40;13.68;;;25.90;99.90;;;;;;4898929;29;20395;-86
2021/06/29 04:38:09;;;;;;;15.15;13.48;;;25.90;99.90;;;;;;4883306;29;20039;-86
2021/06/29 04:40:34;;;;;;;15.60;13.50;;;25.90;99.90;;;;;;4867606;29;20431;-86
2021/06/29 04:43:00;;;;;;;15.95;13.88;;;25.90;99.90;;;;;;4899061;29;20479;-87
2021/06/29 04:45:27;;;;;;;16.10;14.13;;;25.90;99.90;;;;;;4898473;29;20032;-87
2021/06/29 04:47:55;;;;;;;15.23;13.55;;;25.90;99.90;;;;;;4883464;29;20059;-85
2021/06/29 04:50:22;;;;;;;14.60;13.10;;;25.90;99.90;;;;;;4882723;29;20060;-85
2021/06/29 04:52:48;;;;;;;15.40;12.88;;;25.90;99.90;;;;;;4883266;29;20036;-85
2021/06/29 04:55:15;;;;;;;15.20;13.20;;;25.90;99.90;;;;;;4883049;29;20047;-85
2021/06/29 04:57:41;;;;;;;16.15;14.15;;;25.90;99.90;;;;;;4882745;29;20068;-85
2021/06/29 05:00:10;;;;;;;16.35;14.20;;;25.90;99.90;;;;;;4899389;29;20063;-85
2021/06/29 05:02:37;;;;;;;15.38;13.70;;;25.90;99.90;;;;;;4898210;29;20115;-85
2021/06/29 05:05:04;;;;;;;15.95;13.95;;;25.90;99.90;;;;;;4898145;29;20037;-86
2021/06/29 05:07:29;;;;;;;15.77;13.88;;;25.90;99.90;;;;;;4899169;29;20032;-86
2021/06/29 05:09:55;;;;;;;14.80;13.27;;;25.90;99.90;;;;;;4899558;29;20036;-85
2021/06/29 05:12:21;;;;;;;14.57;12.63;;;25.90;99.90;;;;;;4900037;29;20029;-85
2021/06/29 05:14:46;;;;;;;14.75;13.23;;;25.80;99.90;;;;;;4883633;29;20127;-86
2021/06/29 05:17:12;;;;;;;14.65;13.05;;;25.80;99.90;;;;;;4882807;29;20032;-85
2021/06/29 05:19:39;;;;;;;15.23;13.43;;;25.90;99.90;;;;;;4882500;29;20035;-85
2021/06/29 05:22:05;;;;;;;13.57;12.10;;;25.80;99.90;;;;;;4897570;29;20138;-86
2021/06/29 05:24:31;;;;;;;14.93;13.00;;;25.90;99.90;;;;;;4882447;29;20028;-85
2021/06/29 05:26:56;;;;;;;14.27;12.68;;;25.90;99.90;;;;;;4897953;29;20192;-85
2021/06/29 05:29:22;;;;;;;14.68;13.07;;;25.90;99.90;;;;;;4866976;29;20055;-85
2021/06/29 05:31:48;;;;;;;15.13;13.50;;;25.90;99.90;;;;;;4882479;29;20543;-85
2021/06/29 05:34:13;;;;;;;15.73;13.38;;;25.90;99.90;;;;;;4882290;29;20490;-85
2021/06/29 05:36:39;;;;;;;13.80;12.32;;;25.80;99.90;;;;;;4898918;29;20111;-85
2021/06/29 05:39:05;;;;;;;14.85;12.73;;;25.90;99.90;;;;;;4866652;29;20124;-88
2021/06/29 05:41:31;;;;;;;14.52;12.85;;;25.90;99.90;;;;;;4881720;29;20044;-86
2021/06/29 05:43:57;;;;;;;14.23;12.60;;;25.90;99.90;;;;;;4882090;29;20028;-86
2021/06/29 05:46:23;;;;;;;14.77;13.18;;;25.90;99.90;;;;;;4898404;29;20051;-86
2021/06/29 05:48:52;;;;;;;14.95;13.13;;;25.90;99.90;;;;;;4898015;29;20492;-86
2021/06/29 05:51:19;;;;;;;14.70;12.77;;;25.90;99.90;;;;;;4897484;29;20029;-86
2021/06/29 05:53:44;;;;;;;15.30;13.38;;;25.80;99.90;;;;;;4897624;29;20033;-85
2021/06/29 05:56:11;;;;;;;15.15;13.55;;;25.90;99.90;;;;;;4881697;29;20455;-86
2021/06/29 05:58:37;;;;;;;15.48;13.73;;;25.90;99.90;;;;;;4897098;29;20028;-85
2021/06/29 06:01:08;;;;;;;14.40;12.88;;;25.80;99.90;;;;;;4892839;29;20029;-86
2021/06/29 06:03:34;;;;;;;14.65;12.98;;;25.80;99.90;;;;;;4879969;29;20062;-86
2021/06/29 06:06:00;;;;;;;13.85;12.15;;;25.80;99.90;;;;;;4878602;29;20053;-86
2021/06/29 06:08:26;;;;;;;14.52;12.85;;;25.80;99.90;;;;;;4878431;29;20461;-85
2021/06/29 06:10:53;;;;;;;14.93;13.02;;;25.90;99.90;;;;;;4863186;29;20033;-85
2021/06/29 06:13:19;;;;;;;13.13;11.73;;;25.90;99.90;;;;;;4878485;29;20037;-86
2021/06/29 06:15:45;;;;;;;13.40;12.00;;;25.90;99.90;;;;;;4878697;29;20033;-85
2021/06/29 06:18:11;;;;;;;14.43;12.93;;;25.80;99.90;;;;;;4864076;29;20029;-86
2021/06/29 06:20:37;;;;;;;14.13;12.15;;;25.90;99.90;;;;;;4884796;29;20396;-85
2021/06/29 06:23:04;;;;;;;14.32;12.82;;;25.90;99.90;;;;;;4866637;29;20039;-85
2021/06/29 06:25:30;;;;;;;13.93;12.20;;;25.90;99.90;;;;;;4884920;29;20029;-85
2021/06/29 06:27:56;;;;;;;13.10;11.70;;;25.90;99.90;;;;;;4883333;29;20026;-86
2021/06/29 06:30:23;;;;;;;13.40;11.88;;;25.90;99.90;;;;;;4880937;29;20488;-86
2021/06/29 06:32:48;;;;;;;13.40;11.98;;;25.90;99.90;;;;;;4882057;29;20040;-85
2021/06/29 06:35:14;;;;;;;14.05;12.55;;;25.90;99.90;;;;;;4880682;29;20037;-86
2021/06/29 06:37:40;;;;;;;13.35;11.82;;;25.90;99.90;;;;;;4881891;29;20038;-87
2021/06/29 06:40:07;;;;;;;14.60;12.38;;;25.90;99.90;;;;;;4878297;29;20127;-86
2021/06/29 06:42:33;;;;;;;13.43;11.82;;;25.90;99.90;;;;;;4878487;29;20036;-86
2021/06/29 06:44:59;;;;;;;13.23;11.77;;;25.90;99.90;;;;;;4878579;29;20033;-86
2021/06/29 06:47:25;;;;;;;13.55;12.13;;;25.90;99.90;;;;;;4861571;29;20033;-86
2021/06/29 06:49:51;;;;;;;12.77;11.48;;;25.90;99.90;;;;;;4879782;29;20045;-84
2021/06/29 06:52:18;;;;;;;12.88;11.45;;;25.90;99.90;;;;;;4877467;29;20490;-87
2021/06/29 06:54:43;;;;;;;12.07;10.82;;;25.80;99.90;;;;;;4878115;29;20112;-86
2021/06/29 06:57:11;;;;;;;13.70;11.15;;;25.80;99.90;;;;;;4862545;29;20116;-85
2021/06/29 06:59:37;;;;;;;11.73;10.48;;;25.90;99.90;;;;;;4877907;29;20040;-85
2021/06/29 07:02:03;;;;;;;11.43;10.05;;;25.90;99.90;;;;;;4877833;29;20049;-85
2021/06/29 07:04:29;;;;;;;11.93;10.70;;;25.90;99.90;;;;;;4862058;29;20085;-85
2021/06/29 07:06:55;;;;;;;11.38;10.18;;;25.90;99.90;;;;;;4877803;29;20032;-85
2021/06/29 07:09:21;;;;;;;11.50;10.27;;;25.90;99.90;;;;;;4862187;29;20033;-86
2021/06/29 07:11:47;;;;;;;11.55;10.35;;;25.80;99.90;;;;;;4877876;29;20033;-85
2021/06/29 07:14:13;;;;;;;12.15;10.85;;;25.90;99.90;;;;;;4862673;29;20029;-86
2021/06/29 07:16:39;;;;;;;13.00;10.88;;;25.90;99.90;;;;;;4879887;29;20029;-86
2021/06/29 07:19:04;;;;;;;11.45;10.02;;;25.90;99.90;;;;;;4862576;29;20490;-86
2021/06/29 07:21:31;;;;;;;11.88;10.10;;;25.90;99.90;;;;;;4861873;29;20064;-86
2021/06/29 07:23:57;;;;;;;11.00;9.90;;;25.90;99.90;;;;;;4863852;29;20060;-86
2021/06/29 07:26:23;;;;;;;11.25;9.68;;;25.90;99.90;;;;;;4878192;29;20120;-86
2021/06/29 07:28:50;;;;;;;11.95;10.50;;;25.80;99.90;;;;;;4863488;29;20040;-86
2021/06/29 07:31:17;;;;;;;11.32;9.90;;;25.80;99.90;;;;;;4884771;29;20098;-86
2021/06/29 07:33:45;;;;;;;11.05;9.88;;;25.90;99.90;;;;;;4866165;29;20508;-85
2021/06/29 07:36:12;;;;;;;10.95;9.85;;;25.80;99.90;;;;;;4882535;29;20036;-85
2021/06/29 07:38:39;;;;;;;10.25;9.02;;;25.90;99.90;;;;;;4884707;29;20029;-85
2021/06/29 07:41:05;;;;;;;10.95;9.73;;;25.80;99.90;;;;;;4882353;29;20037;-86
2021/06/29 07:43:31;;;;;;;10.45;8.75;;;25.80;99.90;;;;;;4881532;29;20462;-86
2021/06/29 07:45:57;;;;;;;10.20;9.20;;;25.90;99.90;;;;;;4865699;29;20033;-86
2021/06/29 07:48:24;;;;;;;9.38;8.43;;;25.90;99.90;;;;;;4865012;29;20096;-85
2021/06/29 07:50:49;;;;;;;9.73;8.75;;;25.90;99.90;;;;;;4878946;29;20053;-86
2021/06/29 07:53:15;;;;;;;9.23;8.27;;;25.90;99.90;;;;;;4903021;29;20052;-86
2021/06/29 07:55:41;;;;;;;9.45;8.45;;;25.90;99.90;;;;;;4886382;29;20073;-86
2021/06/29 07:58:07;;;;;;;8.80;7.90;;;25.90;99.90;;;;;;4885561;29;20387;-87
2021/06/29 08:00:36;;;;;;;8.75;7.93;;;25.90;99.90;;;;;;4886700;29;20157;-87
2021/06/29 08:03:05;;;;;;;8.95;8.05;;;25.90;99.90;;;;;;4900922;29;20103;-87
2021/06/29 08:05:31;;;;;;;8.90;7.97;;;25.90;99.90;;;;;;4885932;29;20033;-87
2021/06/29 08:07:57;;;;;;;8.88;7.80;;;25.90;99.90;;;;;;4887880;29;20051;-86
2021/06/29 08:10:23;;;;;;;7.97;7.18;;;25.90;99.90;;;;;;4885853;29;20067;-87
2021/06/29 08:12:50;;;;;;;7.95;7.03;;;25.90;99.90;;;;;;4900008;29;20033;-86
2021/06/29 08:15:15;;;;;;;7.78;7.00;;;25.90;99.90;;;;;;4868194;29;20043;-86
2021/06/29 08:17:46;;;;;;;8.45;7.60;;;25.90;99.90;;;;;;4884521;29;20036;-88
2021/06/29 08:20:14;;;;;;;7.63;6.82;;;25.90;99.90;;;;;;4885436;29;20036;-86
2021/06/29 08:22:40;;;;;;;7.57;6.80;;;25.90;99.90;;;;;;4898703;29;20036;-86
2021/06/29 08:25:06;;;;;;;7.82;7.03;;;25.90;99.90;;;;;;4883094;29;20546;-86
2021/06/29 08:27:32;;;;;;;7.72;6.70;;;25.90;99.90;;;;;;4897485;29;20084;-86
2021/06/29 08:29:58;;;;;;;7.40;6.70;;;25.90;99.90;;;;;;4883370;29;20040;-86
2021/06/29 08:32:25;;;;;;;7.43;6.45;;;25.90;99.90;;;;;;4899860;29;20036;-87
2021/06/29 08:34:53;;;;;;;7.68;6.30;;;25.90;99.90;;;;;;4900058;29;20032;-86
2021/06/29 08:37:19;;;;;;;9.63;6.63;;;25.90;99.90;;;;;;4899321;29;20238;-86
2021/06/29 08:39:44;;;;;;;6.22;5.63;;;25.90;99.90;;;;;;4883057;29;20241;-86
2021/06/29 08:42:12;;;;;;;6.82;6.13;;;25.90;99.90;;;;;;4898046;29;20518;-86
2021/06/29 08:44:39;;;;;;;6.82;5.78;;;25.90;99.90;;;;;;4898071;29;20047;-87
2021/06/29 08:47:07;;;;;;;6.53;5.68;;;25.90;99.90;;;;;;4898408;29;20037;-86
2021/06/29 08:49:33;;;;;;;6.10;5.50;;;26.00;99.90;;;;;;4899545;29;20049;-87
2021/06/29 08:51:59;;;;;;;6.53;5.82;;;26.00;99.90;;;;;;4883332;29;20384;-86
2021/06/29 08:54:25;;;;;;;6.55;5.95;;;26.00;99.90;;;;;;4884334;29;20481;-87
2021/06/29 08:56:52;;;;;;;6.28;5.57;;;26.00;99.90;;;;;;4898710;29;20032;-87
2021/06/29 08:59:17;;;;;;;6.38;5.75;;;26.00;99.90;;;;;;4898277;29;20029;-86
2021/06/29 09:01:43;;;;;;;5.75;5.25;;;25.90;99.90;;;;;;4898016;29;20040;-87
2021/06/29 09:04:11;;;;;;;5.57;5.00;;;26.00;99.90;;;;;;4867594;29;20045;-86
2021/06/29 09:06:40;;;;;;;6.43;5.82;;;26.00;99.90;;;;;;4898418;29;20032;-87
2021/06/29 09:09:28;;;;;;;7.35;5.47;;;26.00;99.90;;;;;;4899708;29;20112;-86
2021/06/29 09:11:55;;;;;;;6.15;5.32;;;26.00;99.90;;;;;;4898085;29;20037;-87
2021/06/29 09:14:29;;;;;;;5.65;5.15;;;26.00;99.90;;;;;;4898361;29;20025;-87
2021/06/29 09:17:15;;;;;;;5.27;4.70;;;26.00;99.90;;;;;;4898540;29;20033;-87
2021/06/29 09:19:41;;;;;;;6.95;5.90;;;26.00;99.90;;;;;;4898064;29;20112;-86
2021/06/29 09:22:33;;;;;;;5.78;5.18;;;25.90;99.90;;;;;;4881128;29;20119;-87
2021/06/29 09:25:00;;;;;;;5.70;5.13;;;26.00;99.90;;;;;;4879632;29;20044;-86
2021/06/29 09:27:48;;;;;;;5.53;4.90;;;26.00;99.90;;;;;;4898051;29;20153;-87
2021/06/29 09:30:26;;;;;;;4.93;4.43;;;26.00;99.90;;;;;;4897627;29;20080;-86
2021/06/29 09:32:52;;;;;;;5.63;5.13;;;25.90;99.90;;;;;;4896008;29;20489;-85
2021/06/29 09:35:18;;;;;;;5.53;5.03;;;26.00;99.90;;;;;;4898165;29;20029;-87
2021/06/29 09:37:47;;;;;;;5.32;4.80;;;26.00;99.90;;;;;;4897709;29;20028;-87
2021/06/29 09:40:14;;;;;;;5.28;4.78;;;26.00;99.90;;;;;;4882605;29;20037;-86
2021/06/29 09:42:40;;;;;;;5.10;4.63;;;26.00;99.90;;;;;;4898590;29;20037;-86
2021/06/29 09:45:31;;;;;;;5.00;4.50;;;26.00;99.90;;;;;;4903789;29;20463;-86
2021/06/29 09:47:56;;;;;;;5.25;4.60;;;26.00;99.90;;;;;;4878259;29;20032;-86
2021/06/29 09:50:42;;;;;;;4.95;4.50;;;26.00;99.90;;;;;;4874146;29;20068;-86
2021/06/29 09:53:17;;;;;;;5.22;4.68;;;26.00;99.90;;;;;;4905258;29;20028;-86
2021/06/29 09:55:46;;;;;;;5.15;4.65;;;26.00;99.90;;;;;;4899314;29;20047;-86
2021/06/29 09:58:13;;;;;;;5.25;4.60;;;26.00;99.90;;;;;;4898240;29;20120;-86
2021/06/29 10:00:48;;;;;;;5.15;4.65;;;26.00;99.90;;;;;;4897714;29;20172;-86
2021/06/29 10:03:18;;;;;;;5.13;4.63;;;26.00;99.90;;;;;;4898132;29;20036;-86
2021/06/29 10:05:44;;;;;;;6.07;5.15;;;26.00;99.90;;;;;;4867209;29;20033;-86
2021/06/29 10:08:10;;;;;;;5.05;4.63;;;26.00;99.90;;;;;;4898535;29;20028;-86
2021/06/29 10:10:35;;;;;;;5.05;4.55;;;26.00;99.90;;;;;;4865890;29;20052;-86
2021/06/29 10:13:15;;;;;;;5.40;4.90;;;26.00;99.90;;;;;;4882011;29;20044;-86
2021/06/29 10:15:41;;;;;;;5.18;4.68;;;26.00;99.90;;;;;;4897632;29;20040;-86
2021/06/29 10:18:09;;;;;;;5.65;5.05;;;26.00;99.90;;;;;;4898449;29;20360;-86
2021/06/29 10:23:33;;;;;;;5.68;5.07;;;26.00;99.90;;;;;;4866293;29;20052;-86
2021/06/29 10:25:59;;;;;;;5.47;4.97;;;26.00;99.90;;;;;;4881541;29;20039;-86
2021/06/29 10:28:26;;;;;;;5.47;4.97;;;25.90;99.90;;;;;;4866996;29;20032;-87
2021/06/29 10:30:52;;;;;;;5.63;5.10;;;26.00;99.90;;;;;;4884304;29;20483;-86
2021/06/29 10:33:19;;;;;;;5.78;4.55;;;26.00;99.90;;;;;;4881617;29;20040;-87
2021/06/29 10:35:45;;;;;;;4.95;4.45;;;26.00;99.90;;;;;;4896601;29;20032;-86
2021/06/29 10:38:11;;;;;;;5.45;4.93;;;26.00;99.90;;;;;;4897090;29;20073;-86
2021/06/29 10:40:37;;;;;;;6.15;5.30;;;26.00;99.90;;;;;;4881155;29;20129;-87
2021/06/29 10:43:03;;;;;;;5.10;4.60;;;26.00;99.90;;;;;;4881112;29;20048;-84
2021/06/29 10:45:35;;;;;;;6.22;5.43;;;26.00;99.90;;;;;;4897058;29;20053;-87
2021/06/29 10:48:21;;;;;;;6.00;5.40;;;26.00;99.90;;;;;;4897787;29;20112;-87
2021/06/29 10:50:47;;;;;;;6.07;5.10;;;26.00;99.90;;;;;;4896653;29;20057;-86
2021/06/29 10:53:32;;;;;;;6.18;5.57;;;26.00;99.90;;;;;;4896918;29;20040;-86
2021/06/29 10:55:58;;;;;;;6.57;5.45;;;26.00;99.90;;;;;;4896854;29;20029;-86
2021/06/29 10:58:42;;;;;;;6.40;5.50;;;26.00;99.90;;;;;;4865733;29;20112;-86
2021/06/29 11:01:28;;;;;;;6.57;5.30;;;26.00;99.90;;;;;;4896753;29;20036;-86
2021/06/29 11:03:57;;;;;;;5.72;5.03;;;26.00;99.90;;;;;;4897158;29;20119;-87
2021/06/29 11:06:46;;;;;;;5.85;5.22;;;26.00;99.90;;;;;;4901768;29;20112;-86
2021/06/29 11:09:21;;;;;;;5.97;5.38;;;26.00;99.90;;;;;;4900544;29;20037;-86
2021/06/29 11:12:19;;;;;;;5.60;5.00;;;26.00;99.90;;;;;;4900461;29;20040;-86
2021/06/29 11:14:50;;;;;;;5.18;4.70;;;26.00;99.90;;;;;;4900351;29;20136;-86
2021/06/29 11:17:17;;;;;;;5.55;5.05;;;26.00;99.90;;;;;;4884454;29;20100;-86
2021/06/29 11:20:02;;;;;;;5.03;4.55;;;26.00;99.90;;;;;;4883858;29;20041;-86
2021/06/29 11:22:52;;;;;;;5.53;4.78;;;26.00;99.90;;;;;;4901325;29;20029;-86
2021/06/29 11:25:36;;;;;;;5.30;4.80;;;26.00;99.90;;;;;;4899950;29;20123;-86
2021/06/29 11:28:11;;;;;;;5.93;5.32;;;26.00;99.90;;;;;;4884984;29;20127;-86
2021/06/29 11:31:00;;;;;;;5.00;4.50;;;26.00;99.90;;;;;;4901596;29;20039;-86
2021/06/29 11:33:30;;;;;;;5.75;5.05;;;26.00;99.90;;;;;;4874319;29;20040;-86
2021/06/29 11:35:56;;;;;;;5.75;5.18;;;26.00;99.90;;;;;;4884116;29;20040;-86
2021/06/29 11:38:36;;;;;;;5.43;4.93;;;26.00;99.90;;;;;;4899967;29;20031;-86
2021/06/29 11:41:36;;;;;;;5.20;4.70;;;26.00;99.90;;;;;;4899650;29;20029;-85
2021/06/29 11:44:07;;;;;;;5.30;4.78;;;26.00;99.90;;;;;;4884022;29;20084;-86
2021/06/29 11:46:51;;;;;;;5.63;5.13;;;26.00;99.90;;;;;;4900942;29;20057;-85
2021/06/29 11:49:39;;;;;;;6.27;5.63;;;26.00;99.90;;;;;;4899762;29;20048;-86
2021/06/29 11:52:14;;;;;;;5.18;4.68;;;26.00;99.90;;;;;;4899435;29;20312;-85
2021/06/29 11:54:55;;;;;;;5.80;5.20;;;26.00;99.90;;;;;;4900699;29;20371;-86
2021/06/29 11:57:35;;;;;;;5.95;4.90;;;26.00;99.90;;;;;;4899591;29;20029;-86
2021/06/29 12:00:10;;;;;;;5.78;4.90;;;26.00;99.90;;;;;;4900582;29;20029;-84
2021/06/29 12:02:39;;;;;;;5.88;5.15;;;26.00;99.90;;;;;;4899091;29;20047;-84
2021/06/29 12:05:07;;;;;;;5.40;4.78;;;26.00;99.90;;;;;;4899847;29;20039;-84
2021/06/29 12:07:38;;;;;;;6.00;5.15;;;26.00;99.90;;;;;;4898643;29;20032;-85
2021/06/29 12:10:12;;;;;;;6.32;5.22;;;26.00;99.90;;;;;;4898704;29;20060;-84
2021/06/29 12:12:41;;;;;;;5.65;5.05;;;26.00;99.90;;;;;;4898700;29;20483;-84
2021/06/29 12:15:17;;;;;;;5.70;5.15;;;25.90;99.90;;;;;;4897602;29;20044;-84
2021/06/29 12:17:47;;;;;;;5.50;4.90;;;25.90;99.90;;;;;;4899786;29;20079;-84
2021/06/29 12:20:14;;;;;;;5.10;4.63;;;26.00;99.90;;;;;;4899858;29;20028;-84
2021/06/29 12:22:42;;;;;;;5.45;4.93;;;26.00;99.90;;;;;;4900694;29;20476;-84
2021/06/29 12:25:20;;;;;;;4.85;4.45;;;26.00;99.90;;;;;;4884258;29;20415;-84
2021/06/29 12:27:51;;;;;;;5.15;4.65;;;26.00;99.90;;;;;;4900766;29;20147;-84
2021/06/29 12:30:23;;;;;;;5.15;4.65;;;26.00;99.90;;;;;;4899930;29;20043;-84
2021/06/29 12:32:49;;;;;;;4.88;4.47;;;26.00;99.90;;;;;;4899535;29;20067;-85
2021/06/29 12:35:14;;;;;;;4.55;4.15;;;26.00;99.90;;;;;;4867518;29;20063;-85
2021/06/29 12:37:59;;;;;;;4.93;4.43;;;25.90;99.90;;;;;;4898421;29;20033;-83
2021/06/29 12:40:27;;;;;;;5.20;4.68;;;25.90;99.90;;;;;;4898329;29;20092;-85
2021/06/29 12:42:54;;;;;;;4.50;4.10;;;25.90;99.90;;;;;;4882797;29;20040;-85
2021/06/29 12:45:20;;;;;;;4.40;4.00;;;26.00;99.90;;;;;;4882665;29;20067;-84
2021/06/29 12:47:47;;;;;;;5.00;4.50;;;26.00;99.90;;;;;;4898498;29;20051;-84
2021/06/29 12:50:13;;;;;;;4.28;3.88;;;25.90;99.90;;;;;;4897664;29;20061;-84